Time;durP1;ratioP1;P1;durP2;ratioP2;P2;SDS_P1;SDS_P2;PMS_P1;PMS_P2;Temp;Humidity;BMP_temperature;BMP_pressure;BME280_temperature;BME280_humidity;BME280_pressure;Samples;Min_cycle;Max_cycle;Signal;HPM_P1;HPM_P2
2021/06/09 00:01:45;;;;;;;5.63;4.40;;;17.40;99.90;;;;;;5031111;28;20867;-68
2021/06/09 00:04:11;;;;;;;4.77;4.27;;;17.30;99.90;;;;;;5025283;28;20502;-70
2021/06/09 00:06:39;;;;;;;4.00;3.60;;;17.30;99.90;;;;;;5031536;28;20470;-70
2021/06/09 00:09:06;;;;;;;5.30;4.63;;;17.30;99.90;;;;;;5030526;28;20458;-71
2021/06/09 00:11:33;;;;;;;4.60;4.20;;;17.30;99.90;;;;;;5030910;28;20214;-71
2021/06/09 00:14:04;;;;;;;5.57;4.67;;;17.20;99.90;;;;;;5031036;28;20456;-69
2021/06/09 00:16:31;;;;;;;4.10;3.70;;;17.20;99.90;;;;;;5030005;28;20469;-71
2021/06/09 00:18:57;;;;;;;4.43;4.07;;;17.20;99.90;;;;;;5030934;28;20446;-72
2021/06/09 00:21:24;;;;;;;5.30;4.60;;;17.20;99.90;;;;;;5032143;28;20587;-69
2021/06/09 00:23:56;;;;;;;4.77;4.37;;;17.20;99.90;;;;;;5035692;28;20492;-69
2021/06/09 00:26:23;;;;;;;4.97;4.07;;;17.20;99.90;;;;;;5030423;28;20502;-69
2021/06/09 00:28:51;;;;;;;5.18;4.65;;;17.10;99.90;;;;;;5031290;28;20875;-69
2021/06/09 00:31:19;;;;;;;5.37;4.87;;;17.10;99.90;;;;;;5034472;28;20216;-68
2021/06/09 00:33:46;;;;;;;4.50;4.10;;;17.10;99.90;;;;;;5031027;28;20473;-70
2021/06/09 00:36:13;;;;;;;4.72;4.30;;;16.90;99.90;;;;;;5037520;28;20210;-69
2021/06/09 00:38:40;;;;;;;4.97;4.47;;;16.90;99.90;;;;;;5034596;28;20649;-68
2021/06/09 00:41:08;;;;;;;6.25;5.65;;;16.90;99.90;;;;;;5035460;28;20214;-68
2021/06/09 00:43:35;;;;;;;6.10;5.50;;;16.90;99.90;;;;;;5034782;28;20215;-69
2021/06/09 00:46:04;;;;;;;6.00;4.97;;;16.90;99.90;;;;;;5035144;28;20470;-69
2021/06/09 00:48:33;;;;;;;5.23;4.73;;;16.80;99.90;;;;;;5034321;28;20214;-69
2021/06/09 00:51:03;;;;;;;6.93;5.65;;;16.80;99.90;;;;;;5033251;28;20464;-69
2021/06/09 00:53:33;;;;;;;4.30;3.77;;;16.80;99.90;;;;;;5037945;28;20225;-68
2021/06/09 00:56:01;;;;;;;5.93;4.80;;;16.80;99.90;;;;;;5037220;28;20790;-69
2021/06/09 00:58:28;;;;;;;5.03;4.60;;;16.80;99.90;;;;;;5033940;28;20959;-69
2021/06/09 01:00:56;;;;;;;6.43;5.22;;;16.80;99.90;;;;;;5033548;28;20450;-69
2021/06/09 01:03:23;;;;;;;5.57;5.07;;;16.80;99.90;;;;;;5029025;28;20281;-70
2021/06/09 01:05:51;;;;;;;5.43;4.93;;;16.80;99.90;;;;;;5032438;28;20916;-69
2021/06/09 01:08:17;;;;;;;5.43;4.50;;;16.70;99.90;;;;;;5033338;28;20685;-70
2021/06/09 01:10:45;;;;;;;5.00;4.17;;;16.70;99.90;;;;;;5034274;28;20504;-70
2021/06/09 01:13:12;;;;;;;9.47;4.97;;;16.80;99.90;;;;;;5034939;28;20521;-70
2021/06/09 01:15:40;;;;;;;5.83;5.33;;;16.70;99.90;;;;;;5034867;28;21365;-69
2021/06/09 01:18:07;;;;;;;5.50;4.50;;;16.70;99.90;;;;;;5037252;28;20475;-71
2021/06/09 01:20:35;;;;;;;4.93;4.35;;;16.70;99.90;;;;;;5035494;28;20211;-69
2021/06/09 01:23:04;;;;;;;5.55;4.80;;;16.70;99.90;;;;;;5038304;28;20230;-69
2021/06/09 01:25:31;;;;;;;5.00;4.50;;;16.70;99.90;;;;;;5028311;28;20576;-69
2021/06/09 01:27:58;;;;;;;5.68;5.18;;;16.70;99.90;;;;;;5027574;28;20233;-70
2021/06/09 01:30:25;;;;;;;5.28;4.78;;;16.60;99.90;;;;;;5028276;28;20209;-69
2021/06/09 01:32:53;;;;;;;5.55;5.05;;;16.60;99.90;;;;;;5029683;28;20207;-69
2021/06/09 01:35:20;;;;;;;5.25;4.75;;;16.60;99.90;;;;;;5033564;28;20211;-69
2021/06/09 01:37:48;;;;;;;5.15;4.65;;;16.60;99.90;;;;;;5037175;28;20222;-70
2021/06/09 01:40:19;;;;;;;4.80;4.38;;;16.70;99.90;;;;;;5033127;28;20210;-70
2021/06/09 01:42:45;;;;;;;5.65;4.78;;;16.70;99.90;;;;;;5033488;28;20226;-69
2021/06/09 01:45:15;;;;;;;6.00;5.40;;;16.60;99.90;;;;;;5035465;28;20218;-69
2021/06/09 01:47:42;;;;;;;4.55;4.13;;;16.70;99.90;;;;;;5033579;28;20226;-68
2021/06/09 01:50:11;;;;;;;6.78;6.18;;;16.60;99.90;;;;;;5033216;28;20219;-71
2021/06/09 01:52:37;;;;;;;7.05;6.30;;;16.60;99.90;;;;;;5034268;28;20230;-69
2021/06/09 01:55:07;;;;;;;6.85;6.15;;;16.60;99.90;;;;;;5037007;28;20206;-69
2021/06/09 01:57:35;;;;;;;5.43;4.93;;;16.60;99.90;;;;;;5033721;28;20229;-68
2021/06/09 02:00:03;;;;;;;6.88;5.32;;;16.60;99.90;;;;;;5029506;28;20285;-69
2021/06/09 02:02:30;;;;;;;9.80;6.05;;;16.60;99.90;;;;;;5033797;28;20210;-69
2021/06/09 02:04:58;;;;;;;6.65;5.95;;;16.60;99.90;;;;;;5033589;28;20260;-69
2021/06/09 02:07:25;;;;;;;7.25;5.38;;;16.60;99.90;;;;;;5032024;28;20710;-70
2021/06/09 02:09:52;;;;;;;6.47;5.63;;;16.60;99.90;;;;;;5032716;28;20213;-70
2021/06/09 02:12:21;;;;;;;6.45;5.85;;;16.60;99.90;;;;;;5034472;28;20217;-69
2021/06/09 02:14:50;;;;;;;6.80;6.10;;;16.60;99.90;;;;;;5028711;28;20211;-68
2021/06/09 02:17:16;;;;;;;6.18;5.47;;;16.60;99.90;;;;;;5033416;28;20238;-69
2021/06/09 02:19:43;;;;;;;7.35;6.13;;;16.60;99.90;;;;;;5032886;28;20204;-69
2021/06/09 02:22:10;;;;;;;6.45;5.85;;;16.60;99.90;;;;;;5033203;28;20210;-69
2021/06/09 02:24:37;;;;;;;6.60;6.00;;;16.70;99.90;;;;;;5027101;28;20596;-69
2021/06/09 02:27:04;;;;;;;6.43;5.93;;;16.70;99.90;;;;;;5032452;28;20475;-70
2021/06/09 02:29:31;;;;;;;8.00;6.75;;;16.70;99.90;;;;;;5033024;28;20453;-69
2021/06/09 02:31:59;;;;;;;7.03;6.20;;;16.70;99.90;;;;;;5033640;28;20574;-69
2021/06/09 02:34:26;;;;;;;7.70;6.90;;;16.70;99.90;;;;;;5025539;28;20211;-70
2021/06/09 02:36:56;;;;;;;7.47;6.77;;;16.70;99.90;;;;;;5024349;28;20945;-68
2021/06/09 02:39:25;;;;;;;8.90;6.87;;;16.70;99.90;;;;;;5039198;28;20861;-69
2021/06/09 02:41:51;;;;;;;8.07;7.28;;;16.70;99.90;;;;;;5032834;28;20443;-71
2021/06/09 02:44:18;;;;;;;7.65;6.95;;;16.60;99.90;;;;;;5032251;28;20227;-70
2021/06/09 02:46:49;;;;;;;8.57;7.68;;;16.60;99.90;;;;;;5032704;28;20293;-69
2021/06/09 02:49:21;;;;;;;7.82;7.10;;;16.60;99.90;;;;;;5031792;28;20214;-69
2021/06/09 02:51:53;;;;;;;7.05;6.45;;;16.60;99.90;;;;;;5031969;28;20206;-69
2021/06/09 02:54:30;;;;;;;7.87;7.07;;;16.70;99.90;;;;;;5032711;28;20695;-69
2021/06/09 02:57:10;;;;;;;7.95;6.45;;;16.70;99.90;;;;;;5031927;28;20469;-69
2021/06/09 02:59:53;;;;;;;8.27;7.43;;;16.80;99.90;;;;;;5014910;28;20207;-69
2021/06/09 03:02:25;;;;;;;7.90;7.13;;;16.80;99.90;;;;;;5032028;28;20449;-69
2021/06/09 03:04:59;;;;;;;6.55;6.00;;;16.80;99.90;;;;;;5033060;28;20234;-69
2021/06/09 03:07:32;;;;;;;12.27;6.68;;;16.90;99.90;;;;;;5031363;28;20274;-69
2021/06/09 03:10:09;;;;;;;7.87;7.07;;;16.90;99.90;;;;;;5031808;28;20238;-69
2021/06/09 03:12:46;;;;;;;8.30;7.47;;;16.90;99.90;;;;;;5031730;28;20453;-68
2021/06/09 03:15:15;;;;;;;8.68;7.85;;;17.00;99.90;;;;;;5014584;28;20459;-69
2021/06/09 03:17:54;;;;;;;7.40;6.70;;;17.00;99.90;;;;;;5031673;28;20230;-69
2021/06/09 03:20:33;;;;;;;6.93;6.22;;;17.10;99.90;;;;;;5032080;28;20457;-67
2021/06/09 03:23:06;;;;;;;6.03;5.43;;;17.20;99.90;;;;;;5010139;28;20224;-68
2021/06/09 03:25:39;;;;;;;7.43;5.70;;;17.20;99.90;;;;;;5032077;28;20546;-69
2021/06/09 03:28:19;;;;;;;8.43;7.67;;;17.20;99.90;;;;;;5033014;28;20847;-70
2021/06/09 03:30:53;;;;;;;7.78;6.97;;;17.20;99.90;;;;;;5008839;28;20956;-69
2021/06/09 03:33:24;;;;;;;9.30;8.40;;;17.20;99.90;;;;;;5031698;28;20582;-69
2021/06/09 03:35:58;;;;;;;7.97;7.15;;;17.10;99.90;;;;;;5021444;28;20227;-69
2021/06/09 03:38:31;;;;;;;6.10;5.50;;;17.10;99.90;;;;;;5025580;28;20218;-69
2021/06/09 03:41:01;;;;;;;7.90;7.20;;;17.10;99.90;;;;;;5021749;28;20453;-68
2021/06/09 03:43:29;;;;;;;7.90;7.20;;;17.10;99.90;;;;;;5025084;28;20227;-69
2021/06/09 03:45:58;;;;;;;7.90;7.10;;;17.10;99.90;;;;;;5026037;28;20212;-69
2021/06/09 03:48:29;;;;;;;7.80;7.00;;;17.10;99.90;;;;;;5017063;28;20576;-69
2021/06/09 03:51:00;;;;;;;7.30;6.70;;;17.10;99.90;;;;;;5030260;28;20446;-69
2021/06/09 03:53:28;;;;;;;8.20;6.80;;;17.20;99.90;;;;;;5024216;28;20525;-70
2021/06/09 03:55:59;;;;;;;7.30;6.57;;;17.10;99.90;;;;;;5031114;28;20926;-69
2021/06/09 03:58:29;;;;;;;7.30;6.05;;;17.30;99.90;;;;;;5031301;28;20358;-70
2021/06/09 04:00:56;;;;;;;6.97;5.90;;;17.50;99.90;;;;;;5028162;28;20204;-69
2021/06/09 04:03:24;;;;;;;8.80;7.10;;;17.50;99.90;;;;;;5031877;28;20797;-71
2021/06/09 04:05:53;;;;;;;7.13;6.43;;;17.70;99.90;;;;;;5029901;28;20450;-70
2021/06/09 04:08:22;;;;;;;10.23;8.00;;;17.80;99.90;;;;;;5030318;28;20885;-70
2021/06/09 04:10:49;;;;;;;8.40;7.07;;;17.80;99.90;;;;;;5030736;28;20453;-70
2021/06/09 04:13:18;;;;;;;8.90;8.00;;;17.80;99.90;;;;;;5032355;28;20856;-71
2021/06/09 04:15:46;;;;;;;9.43;8.47;;;17.90;99.90;;;;;;5030913;28;20453;-70
2021/06/09 04:18:15;;;;;;;10.20;8.83;;;18.00;99.90;;;;;;5030964;28;20833;-71
2021/06/09 04:20:43;;;;;;;6.77;6.17;;;18.10;99.90;;;;;;5031335;28;20446;-70
2021/06/09 04:23:10;;;;;;;6.43;5.80;;;18.40;99.90;;;;;;5031730;28;20483;-70
2021/06/09 04:25:38;;;;;;;8.80;7.97;;;18.70;99.90;;;;;;5031126;28;20803;-70
2021/06/09 04:28:07;;;;;;;8.63;6.13;;;19.30;99.90;;;;;;5031822;28;20470;-70
2021/06/09 04:30:34;;;;;;;9.00;7.20;;;19.90;99.90;;;;;;5025023;28;20505;-70
2021/06/09 04:33:03;;;;;;;7.63;6.93;;;20.10;99.90;;;;;;5030962;28;20903;-71
2021/06/09 04:35:38;;;;;;;10.37;8.43;;;20.40;99.90;;;;;;5029699;28;21159;-72
2021/06/09 04:38:05;;;;;;;7.57;6.77;;;20.60;99.90;;;;;;5016177;28;20472;-70
2021/06/09 04:40:32;;;;;;;8.70;7.90;;;21.00;99.90;;;;;;5032529;28;20453;-72
2021/06/09 04:43:00;;;;;;;6.57;6.00;;;21.60;99.90;;;;;;5031242;28;20841;-72
2021/06/09 04:45:29;;;;;;;5.70;5.10;;;22.30;99.90;;;;;;5030756;28;20460;-72
2021/06/09 04:47:56;;;;;;;7.10;6.37;;;23.10;99.90;;;;;;5033568;28;20475;-72
2021/06/09 04:50:24;;;;;;;7.50;6.77;;;23.90;99.20;;;;;;5028969;28;20466;-71
2021/06/09 04:52:54;;;;;;;8.43;5.80;;;24.20;98.30;;;;;;5030964;28;20546;-71
2021/06/09 04:55:21;;;;;;;6.60;5.90;;;24.50;97.90;;;;;;5030357;28;20443;-70
2021/06/09 04:57:48;;;;;;;7.13;6.20;;;24.90;96.60;;;;;;5030123;28;20478;-69
2021/06/09 05:00:18;;;;;;;6.67;6.00;;;25.40;95.50;;;;;;5017855;28;20446;-70
2021/06/09 05:02:44;;;;;;;8.33;6.50;;;26.00;94.20;;;;;;5027469;28;20477;-71
2021/06/09 05:05:12;;;;;;;8.20;6.53;;;26.00;92.90;;;;;;5018926;28;20459;-70
2021/06/09 05:07:39;;;;;;;8.27;5.70;;;25.90;92.90;;;;;;5033690;28;20466;-70
2021/06/09 05:10:06;;;;;;;6.90;6.20;;;25.80;93.10;;;;;;5029554;28;20450;-70
2021/06/09 05:12:40;;;;;;;9.07;6.13;;;25.40;92.50;;;;;;5030227;28;20456;-70
2021/06/09 05:15:09;;;;;;;5.60;4.97;;;25.30;93.00;;;;;;5012877;28;20439;-69
2021/06/09 05:17:43;;;;;;;7.67;6.77;;;25.30;92.40;;;;;;5028065;28;20546;-72
2021/06/09 05:20:15;;;;;;;7.30;5.10;;;25.00;92.90;;;;;;5033654;28;20489;-70
2021/06/09 05:22:47;;;;;;;6.63;5.70;;;25.50;92.70;;;;;;5031556;28;20520;-70
2021/06/09 05:25:16;;;;;;;5.17;4.67;;;26.10;91.70;;;;;;5033697;28;20458;-71
2021/06/09 05:27:44;;;;;;;6.77;6.10;;;26.50;90.60;;;;;;5035865;28;20961;-69
2021/06/09 05:30:15;;;;;;;5.77;5.17;;;26.60;90.60;;;;;;5033164;28;20563;-71
2021/06/09 05:32:43;;;;;;;5.97;5.37;;;26.60;90.00;;;;;;5022959;28;20466;-69
2021/06/09 05:35:11;;;;;;;6.23;4.90;;;26.30;89.70;;;;;;5029344;28;20455;-71
2021/06/09 05:37:40;;;;;;;7.17;6.30;;;25.70;91.10;;;;;;5028038;28;20475;-71
2021/06/09 05:40:09;;;;;;;6.47;5.80;;;25.30;92.70;;;;;;5033052;28;20447;-72
2021/06/09 05:42:36;;;;;;;7.43;6.37;;;25.00;93.00;;;;;;5030151;28;20455;-71
2021/06/09 05:45:05;;;;;;;6.20;5.43;;;24.80;94.10;;;;;;5033481;28;20450;-71
2021/06/09 05:47:32;;;;;;;6.50;6.00;;;24.60;94.50;;;;;;5033320;28;20533;-70
2021/06/09 05:50:12;;;;;;;6.00;4.90;;;24.40;95.10;;;;;;5030023;28;20881;-71
2021/06/09 05:52:39;;;;;;;5.73;5.20;;;24.20;95.60;;;;;;5030902;28;20510;-71
2021/06/09 05:55:07;;;;;;;5.93;5.40;;;24.10;95.80;;;;;;5034015;28;20497;-70
2021/06/09 05:57:33;;;;;;;6.40;5.00;;;23.80;96.30;;;;;;5033142;28;20466;-72
2021/06/09 06:00:00;;;;;;;7.53;6.73;;;23.80;96.60;;;;;;5032621;28;20498;-70
2021/06/09 06:02:30;;;;;;;8.50;5.90;;;23.80;96.70;;;;;;5031772;28;20451;-70
2021/06/09 06:04:58;;;;;;;41.07;9.03;;;23.80;96.60;;;;;;5033513;28;20914;-70
2021/06/09 06:07:26;;;;;;;6.93;6.30;;;24.10;96.40;;;;;;5026454;28;20467;-70
2021/06/09 06:09:53;;;;;;;10.83;6.17;;;24.30;95.80;;;;;;5028178;28;20493;-70
2021/06/09 06:12:24;;;;;;;6.03;4.80;;;24.40;94.60;;;;;;5033040;28;20450;-70
2021/06/09 06:14:52;;;;;;;5.90;5.40;;;24.70;94.80;;;;;;5031584;28;20447;-71
2021/06/09 06:17:19;;;;;;;7.27;6.00;;;26.00;94.20;;;;;;5027735;28;20578;-71
2021/06/09 06:19:49;;;;;;;6.23;5.63;;;26.30;92.60;;;;;;5030591;28;20535;-71
2021/06/09 06:22:16;;;;;;;7.03;5.00;;;26.60;93.20;;;;;;5031212;28;21137;-71
2021/06/09 06:24:46;;;;;;;6.20;5.33;;;27.20;91.70;;;;;;5030523;28;20582;-70
2021/06/09 06:27:13;;;;;;;6.33;5.10;;;27.30;90.80;;;;;;5033980;28;20972;-71
2021/06/09 06:29:41;;;;;;;9.00;5.13;;;27.40;90.70;;;;;;5031285;28;20834;-71
2021/06/09 06:32:10;;;;;;;8.43;5.60;;;27.80;89.30;;;;;;5031818;28;20523;-71
2021/06/09 06:34:41;;;;;;;5.50;4.87;;;28.10;88.00;;;;;;5030650;28;20804;-71
2021/06/09 06:37:09;;;;;;;6.07;4.07;;;27.80;87.60;;;;;;5030505;28;20459;-71
2021/06/09 06:39:36;;;;;;;4.53;2.63;;;28.10;83.40;;;;;;5029350;28;20458;-72
2021/06/09 06:42:05;;;;;;;3.57;2.50;;;28.90;75.40;;;;;;5031918;28;20498;-71
2021/06/09 06:44:34;;;;;;;7.53;2.47;;;30.00;70.50;;;;;;5028967;28;20490;-70
2021/06/09 06:47:01;;;;;;;2.70;2.07;;;30.20;68.70;;;;;;5031786;28;20470;-70
2021/06/09 06:49:29;;;;;;;2.60;2.10;;;30.50;66.40;;;;;;5034768;28;20457;-72
2021/06/09 06:51:57;;;;;;;5.43;2.47;;;31.30;63.50;;;;;;5034103;28;20446;-71
2021/06/09 06:54:25;;;;;;;1.93;1.53;;;31.60;61.10;;;;;;5038218;28;20454;-71
2021/06/09 06:56:54;;;;;;;3.97;2.33;;;31.10;60.90;;;;;;5034650;28;20475;-72
2021/06/09 06:59:23;;;;;;;3.70;2.40;;;30.90;61.70;;;;;;5028183;28;20446;-70
2021/06/09 07:01:51;;;;;;;2.30;2.10;;;30.60;60.00;;;;;;5032541;28;20446;-71
2021/06/09 07:04:20;;;;;;;4.00;2.60;;;31.50;60.70;;;;;;5031059;28;20490;-71
2021/06/09 07:06:49;;;;;;;4.07;2.27;;;32.10;60.80;;;;;;5021575;28;20483;-71
2021/06/09 07:09:17;;;;;;;3.17;2.60;;;32.60;58.30;;;;;;5029453;28;20447;-71
2021/06/09 07:11:46;;;;;;;2.10;1.87;;;32.70;57.20;;;;;;5037010;28;20448;-71
2021/06/09 07:14:14;;;;;;;2.37;2.17;;;32.80;56.10;;;;;;5030738;28;20946;-71
2021/06/09 07:16:45;;;;;;;2.40;1.77;;;33.40;56.30;;;;;;5027538;28;20477;-71
2021/06/09 07:19:12;;;;;;;3.70;2.83;;;34.10;54.20;;;;;;5024685;28;20778;-71
2021/06/09 07:21:39;;;;;;;1.93;1.77;;;35.40;52.70;;;;;;5031707;28;20455;-70
2021/06/09 07:24:07;;;;;;;4.40;2.63;;;36.20;51.00;;;;;;5014477;28;20904;-70
2021/06/09 07:26:39;;;;;;;2.50;2.30;;;36.00;49.80;;;;;;5030884;28;20455;-71
2021/06/09 07:29:07;;;;;;;4.20;1.77;;;35.90;50.80;;;;;;5027199;28;20933;-70
2021/06/09 07:31:36;;;;;;;2.50;2.10;;;36.20;49.50;;;;;;5031462;28;20466;-71
2021/06/09 07:34:05;;;;;;;3.00;2.70;;;36.80;48.20;;;;;;5028903;28;20435;-71
2021/06/09 07:36:39;;;;;;;3.03;2.17;;;36.20;48.20;;;;;;5032244;28;20513;-71
2021/06/09 07:39:09;;;;;;;2.30;2.00;;;36.30;48.20;;;;;;5031780;28;20506;-72
2021/06/09 07:41:39;;;;;;;3.50;2.30;;;36.20;46.90;;;;;;5031779;28;20554;-71
2021/06/09 07:44:08;;;;;;;5.83;2.30;;;35.80;47.80;;;;;;5031481;28;20852;-72
2021/06/09 07:46:35;;;;;;;2.40;2.20;;;35.70;48.20;;;;;;5031483;28;20481;-71
2021/06/09 07:49:08;;;;;;;3.60;2.27;;;34.70;48.10;;;;;;5030115;28;20487;-71
2021/06/09 07:51:35;;;;;;;2.03;1.83;;;34.60;49.10;;;;;;5031520;28;20779;-71
2021/06/09 07:54:02;;;;;;;2.53;1.93;;;34.40;49.60;;;;;;5030836;28;20455;-72
2021/06/09 07:56:32;;;;;;;5.13;1.80;;;34.40;49.40;;;;;;5031357;28;20482;-71
2021/06/09 07:59:02;;;;;;;30.17;6.80;;;34.30;49.30;;;;;;5026815;28;20448;-72
2021/06/09 08:01:31;;;;;;;5.13;2.30;;;34.10;49.70;;;;;;5024461;28;20454;-71
2021/06/09 08:03:58;;;;;;;14.40;4.80;;;34.10;49.30;;;;;;5031693;28;20486;-72
2021/06/09 08:06:28;;;;;;;52.70;11.70;;;33.20;50.60;;;;;;5030978;28;20470;-71
2021/06/09 08:08:55;;;;;;;6.37;2.10;;;33.00;51.00;;;;;;5034302;28;20806;-72
2021/06/09 08:11:22;;;;;;;9.07;3.00;;;33.60;50.20;;;;;;5030477;28;20499;-72
2021/06/09 08:13:49;;;;;;;4.60;2.27;;;33.50;50.10;;;;;;5031383;28;20450;-71
2021/06/09 08:16:19;;;;;;;10.40;3.43;;;33.60;50.30;;;;;;5029896;28;20490;-72
2021/06/09 08:18:48;;;;;;;4.57;2.20;;;33.60;51.70;;;;;;5030349;28;20976;-71
2021/06/09 08:21:16;;;;;;;4.20;2.40;;;33.90;49.80;;;;;;5030902;28;20493;-71
2021/06/09 08:23:45;;;;;;;3.77;1.73;;;34.20;51.60;;;;;;5036103;28;20514;-71
2021/06/09 08:26:16;;;;;;;2.87;1.77;;;34.60;49.40;;;;;;5028875;28;20439;-71
2021/06/09 08:28:44;;;;;;;3.00;2.30;;;34.60;49.20;;;;;;5030763;28;20791;-72
2021/06/09 08:31:12;;;;;;;3.20;2.20;;;34.50;48.50;;;;;;5030794;28;20996;-72
2021/06/09 08:33:41;;;;;;;4.10;2.43;;;34.10;49.40;;;;;;5030792;28;20813;-72
2021/06/09 08:36:09;;;;;;;2.43;1.93;;;34.30;50.10;;;;;;5024522;28;20838;-71
2021/06/09 08:38:36;;;;;;;4.93;2.47;;;34.80;49.30;;;;;;5030572;28;20795;-71
2021/06/09 08:41:06;;;;;;;4.40;2.47;;;34.30;49.50;;;;;;5028104;28;20446;-72
2021/06/09 08:43:34;;;;;;;2.47;2.27;;;33.80;51.00;;;;;;5027621;28;20486;-71
2021/06/09 08:46:02;;;;;;;2.80;2.43;;;33.70;51.20;;;;;;5030297;28;20810;-72
2021/06/09 08:48:30;;;;;;;2.90;2.13;;;34.00;52.30;;;;;;5029693;28;20534;-72
2021/06/09 08:50:57;;;;;;;6.33;3.20;;;34.40;51.30;;;;;;5030646;28;20442;-72
2021/06/09 08:53:25;;;;;;;3.93;2.97;;;34.70;51.80;;;;;;5031723;28;20513;-71
2021/06/09 08:55:51;;;;;;;3.63;2.70;;;34.50;52.00;;;;;;5034165;28;20451;-72
2021/06/09 08:58:21;;;;;;;3.43;2.87;;;34.50;52.50;;;;;;5033737;28;20482;-72
2021/06/09 09:00:48;;;;;;;3.33;3.03;;;34.70;51.90;;;;;;5030440;28;20521;-73
2021/06/09 09:03:14;;;;;;;4.70;2.53;;;34.70;50.90;;;;;;5031121;28;20443;-73
2021/06/09 09:05:41;;;;;;;7.27;2.90;;;35.40;50.60;;;;;;5034144;28;20454;-73
2021/06/09 09:08:09;;;;;;;2.27;2.07;;;35.40;50.10;;;;;;5034285;28;20477;-73
2021/06/09 09:10:36;;;;;;;4.47;2.97;;;35.70;49.60;;;;;;5034026;28;20453;-70
2021/06/09 09:13:05;;;;;;;3.20;2.70;;;36.10;49.50;;;;;;5034038;28;20533;-70
2021/06/09 09:15:33;;;;;;;3.90;3.03;;;36.10;48.80;;;;;;5034250;28;20458;-73
2021/06/09 09:18:03;;;;;;;3.77;2.53;;;35.50;49.30;;;;;;5035625;28;20477;-70
2021/06/09 09:20:31;;;;;;;3.80;2.20;;;35.60;51.00;;;;;;5031353;28;20572;-70
2021/06/09 09:23:00;;;;;;;3.23;2.90;;;35.90;49.30;;;;;;5033441;28;20439;-71
2021/06/09 09:25:28;;;;;;;6.53;3.03;;;35.10;49.30;;;;;;5031292;28;20486;-71
2021/06/09 09:27:58;;;;;;;4.70;2.57;;;34.80;50.00;;;;;;5031092;28;20470;-72
2021/06/09 09:30:26;;;;;;;23.20;7.00;;;33.90;51.00;;;;;;5026811;28;20442;-72
2021/06/09 09:33:06;;;;;;;17.50;4.97;;;33.40;52.00;;;;;;5033933;28;20451;-72
2021/06/09 09:35:34;;;;;;;7.77;3.97;;;33.20;53.60;;;;;;5037112;28;20458;-72
2021/06/09 09:38:22;;;;;;;15.67;6.00;;;33.30;53.30;;;;;;5034337;28;20466;-72
2021/06/09 09:41:05;;;;;;;3.87;3.20;;;33.60;52.90;;;;;;5035558;28;20541;-72
2021/06/09 09:43:46;;;;;;;3.50;2.47;;;33.80;53.90;;;;;;5031673;28;20573;-72
2021/06/09 09:46:14;;;;;;;384.47;79.10;;;34.30;51.50;;;;;;5032275;28;20454;-72
2021/06/09 09:48:58;;;;;;;82.07;15.63;;;34.30;51.30;;;;;;5032860;28;20451;-72
2021/06/09 09:51:26;;;;;;;9.23;4.37;;;34.20;52.00;;;;;;5033651;28;20450;-72
2021/06/09 09:53:56;;;;;;;8.20;3.77;;;33.90;51.80;;;;;;5033821;28;20889;-72
2021/06/09 09:56:24;;;;;;;5.43;2.97;;;34.30;51.30;;;;;;5032916;28;20483;-72
2021/06/09 09:58:57;;;;;;;3.57;3.27;;;34.50;49.50;;;;;;5030275;28;20455;-72
2021/06/09 10:01:25;;;;;;;9.27;2.67;;;33.70;50.50;;;;;;5027755;28;20434;-72
2021/06/09 10:03:54;;;;;;;2.63;2.13;;;33.70;50.60;;;;;;5032537;28;20491;-72
2021/06/09 10:06:28;;;;;;;3.53;2.20;;;34.30;48.30;;;;;;5032663;28;20463;-72
2021/06/09 10:08:56;;;;;;;2.17;1.97;;;34.30;47.50;;;;;;5032957;28;20478;-71
2021/06/09 10:11:24;;;;;;;3.50;2.40;;;34.30;47.70;;;;;;5032351;28;20451;-71
2021/06/09 10:13:51;;;;;;;3.00;2.60;;;34.60;48.80;;;;;;5033117;28;20490;-71
2021/06/09 10:16:32;;;;;;;3.33;2.23;;;33.80;49.50;;;;;;5031600;28;22344;-70
2021/06/09 10:19:07;;;;;;;4.20;2.70;;;33.80;48.90;;;;;;5028363;28;20520;-70
2021/06/09 10:21:42;;;;;;;5.60;2.83;;;33.80;48.10;;;;;;5032403;28;20492;-72
2021/06/09 10:24:10;;;;;;;2.20;2.00;;;33.60;49.80;;;;;;5033401;28;20828;-72
2021/06/09 10:26:39;;;;;;;3.00;1.97;;;33.00;49.80;;;;;;5028988;28;20467;-72
2021/06/09 10:29:11;;;;;;;2.10;1.53;;;33.00;48.40;;;;;;5034071;28;20447;-73
2021/06/09 10:31:42;;;;;;;2.17;1.87;;;32.90;47.80;;;;;;5032670;28;20944;-71
2021/06/09 10:34:10;;;;;;;3.40;2.80;;;32.60;48.90;;;;;;5032703;28;20439;-73
2021/06/09 10:36:45;;;;;;;3.50;2.37;;;32.60;49.80;;;;;;5032560;28;20979;-72
2021/06/09 10:39:13;;;;;;;7.23;2.40;;;32.20;49.40;;;;;;5031734;28;20987;-72
2021/06/09 10:41:43;;;;;;;3.73;1.70;;;31.60;50.60;;;;;;5034662;28;20505;-72
2021/06/09 10:44:11;;;;;;;2.10;1.50;;;31.00;49.20;;;;;;5028786;28;20482;-72
2021/06/09 10:46:40;;;;;;;5.07;2.30;;;30.50;50.30;;;;;;5025797;28;20470;-72
2021/06/09 10:49:14;;;;;;;4.97;2.30;;;30.10;52.00;;;;;;5035032;28;20479;-71
2021/06/09 10:51:41;;;;;;;2.40;2.20;;;29.80;52.10;;;;;;5027751;28;20870;-71
2021/06/09 10:54:12;;;;;;;3.20;2.00;;;30.00;53.40;;;;;;5033962;28;20454;-71
2021/06/09 10:56:39;;;;;;;2.93;1.90;;;29.90;53.60;;;;;;5031127;28;20523;-71
2021/06/09 10:59:06;;;;;;;2.53;1.60;;;29.90;52.80;;;;;;5027272;28;20464;-72
2021/06/09 11:01:33;;;;;;;5.80;2.47;;;30.00;53.10;;;;;;5031970;28;20747;-72
2021/06/09 11:04:01;;;;;;;2.43;2.13;;;29.80;54.10;;;;;;5031878;28;20483;-72
2021/06/09 11:06:37;;;;;;;3.30;2.80;;;29.50;53.90;;;;;;5026101;28;20471;-72
2021/06/09 11:09:22;;;;;;;6.63;2.60;;;29.60;54.40;;;;;;5037099;28;20446;-71
2021/06/09 11:12:20;;;;;;;4.27;3.30;;;29.70;54.70;;;;;;5037640;28;20541;-71
2021/06/09 11:14:50;;;;;;;3.27;2.97;;;29.90;55.30;;;;;;5030788;28;20443;-71
2021/06/09 11:17:38;;;;;;;2.57;2.33;;;30.00;55.10;;;;;;5031597;28;20467;-72
2021/06/09 11:20:20;;;;;;;3.50;2.73;;;29.90;54.50;;;;;;5028252;28;20516;-70
2021/06/09 11:22:51;;;;;;;3.70;2.97;;;29.50;53.00;;;;;;5028400;28;20452;-71
2021/06/09 11:25:20;;;;;;;4.03;3.10;;;29.20;52.80;;;;;;5031928;28;20568;-71
2021/06/09 11:27:56;;;;;;;4.50;2.80;;;28.70;53.20;;;;;;5030285;28;20475;-71
2021/06/09 11:30:50;;;;;;;3.70;2.13;;;28.90;53.30;;;;;;5031298;28;20463;-72
2021/06/09 11:33:43;;;;;;;5.23;3.63;;;29.20;53.60;;;;;;5030844;28;20450;-72
2021/06/09 11:36:34;;;;;;;31.90;7.20;;;29.50;54.30;;;;;;5035188;28;20921;-72
2021/06/09 11:39:06;;;;;;;4.23;3.23;;;29.50;55.00;;;;;;5029748;28;20965;-73
2021/06/09 11:41:40;;;;;;;2.70;2.50;;;29.60;55.10;;;;;;5031422;28;20577;-73
2021/06/09 11:44:08;;;;;;;6.70;3.23;;;29.40;54.40;;;;;;5035256;28;20546;-72
2021/06/09 11:46:36;;;;;;;6.47;2.80;;;29.30;55.70;;;;;;5030687;28;20471;-73
2021/06/09 11:49:05;;;;;;;2.93;2.63;;;29.20;55.80;;;;;;5030167;28;20465;-72
2021/06/09 11:51:34;;;;;;;3.87;3.47;;;29.10;55.70;;;;;;5031722;28;20494;-73
2021/06/09 11:54:17;;;;;;;3.93;3.20;;;29.00;55.90;;;;;;5031313;28;20450;-72
2021/06/09 11:56:46;;;;;;;3.63;3.00;;;28.90;55.80;;;;;;5027479;28;20471;-72
2021/06/09 11:59:26;;;;;;;5.20;3.20;;;28.80;56.40;;;;;;5025768;28;20456;-73
2021/06/09 12:01:54;;;;;;;3.00;2.70;;;28.70;55.90;;;;;;5030911;28;20960;-72
2021/06/09 12:04:22;;;;;;;3.83;2.87;;;28.90;55.80;;;;;;5030833;28;20487;-73
2021/06/09 12:06:51;;;;;;;3.60;2.80;;;29.00;56.30;;;;;;5031392;28;20553;-71
2021/06/09 12:09:21;;;;;;;4.90;2.50;;;28.80;57.10;;;;;;5033046;28;21180;-72
2021/06/09 12:11:50;;;;;;;2.83;2.53;;;28.80;57.40;;;;;;5036335;28;20447;-73
2021/06/09 12:14:26;;;;;;;3.80;3.10;;;28.80;56.10;;;;;;5031773;28;21006;-72
2021/06/09 12:16:56;;;;;;;5.10;3.47;;;28.70;56.90;;;;;;5030998;28;20474;-72
2021/06/09 12:19:28;;;;;;;4.50;2.90;;;28.30;56.20;;;;;;5027753;28;20462;-73
2021/06/09 12:22:05;;;;;;;3.80;3.50;;;28.40;55.90;;;;;;5031312;28;20828;-72
2021/06/09 12:24:34;;;;;;;3.53;3.13;;;28.20;56.70;;;;;;5033667;28;20794;-72
2021/06/09 12:27:03;;;;;;;4.87;3.67;;;28.10;57.30;;;;;;5039661;28;20589;-72
2021/06/09 12:29:34;;;;;;;4.00;3.60;;;28.20;57.80;;;;;;5036757;28;20450;-73
2021/06/09 12:32:13;;;;;;;3.70;3.13;;;28.50;57.00;;;;;;5035040;28;20450;-72
2021/06/09 12:34:40;;;;;;;4.03;3.63;;;28.40;56.90;;;;;;5037910;28;20442;-73
2021/06/09 12:37:09;;;;;;;4.10;3.40;;;28.30;57.10;;;;;;5037350;28;20471;-72
2021/06/09 12:39:38;;;;;;;5.43;3.50;;;28.20;57.10;;;;;;5036225;28;20447;-73
2021/06/09 12:42:12;;;;;;;4.03;3.57;;;28.30;57.40;;;;;;5039590;28;20934;-72
2021/06/09 12:44:48;;;;;;;3.87;3.47;;;28.40;57.90;;;;;;5037183;28;20570;-72
2021/06/09 12:47:28;;;;;;;3.77;3.47;;;28.50;57.80;;;;;;5037161;28;20466;-72
2021/06/09 12:50:15;;;;;;;3.90;3.60;;;28.50;58.00;;;;;;5032791;28;20458;-72
2021/06/09 12:52:43;;;;;;;6.40;4.70;;;28.80;58.20;;;;;;5036446;28;20521;-73
2021/06/09 12:55:21;;;;;;;4.17;3.63;;;28.60;58.70;;;;;;5038397;28;20439;-72
2021/06/09 12:57:48;;;;;;;4.97;4.47;;;28.60;59.70;;;;;;5037894;28;20470;-73
2021/06/09 13:00:35;;;;;;;4.57;4.17;;;28.50;59.60;;;;;;5037124;28;20525;-73